sensor_id;sensor_type;location;lat;lon;timestamp;pressure;altitude;pressure_sealevel;temperature;humidity
37904;BME280;23738;50.422;18.758;2022-07-29T00:00:10;98789.66;;;16.56;56.74
37904;BME280;23738;50.422;18.758;2022-07-29T00:02:37;98798.81;;;16.60;56.78
37904;BME280;23738;50.422;18.758;2022-07-29T00:05:03;98796.31;;;16.65;56.79
37904;BME280;23738;50.422;18.758;2022-07-29T00:07:30;98798.79;;;16.69;56.94
37904;BME280;23738;50.422;18.758;2022-07-29T00:10:01;98791.89;;;16.71;56.71
37904;BME280;23738;50.422;18.758;2022-07-29T00:12:26;98791.08;;;16.70;56.65
37904;BME280;23738;50.422;18.758;2022-07-29T00:14:54;98791.95;;;16.73;56.68
37904;BME280;23738;50.422;18.758;2022-07-29T00:17:22;98782.03;;;16.71;56.81
37904;BME280;23738;50.422;18.758;2022-07-29T00:19:49;98784.12;;;16.69;56.72
37904;BME280;23738;50.422;18.758;2022-07-29T00:22:14;98779.83;;;16.68;56.96
37904;BME280;23738;50.422;18.758;2022-07-29T00:24:40;98788.89;;;16.67;56.95
37904;BME280;23738;50.422;18.758;2022-07-29T00:27:06;98786.98;;;16.65;57.02
37904;BME280;23738;50.422;18.758;2022-07-29T00:29:32;98784.53;;;16.64;57.13
37904;BME280;23738;50.422;18.758;2022-07-29T00:31:58;98789.87;;;16.64;57.12
37904;BME280;23738;50.422;18.758;2022-07-29T00:34:24;98784.76;;;16.62;57.16
37904;BME280;23738;50.422;18.758;2022-07-29T00:37:08;98785.47;;;16.60;57.27
37904;BME280;23738;50.422;18.758;2022-07-29T00:39:34;98780.14;;;16.60;57.42
37904;BME280;23738;50.422;18.758;2022-07-29T00:42:02;98781.73;;;16.59;57.34
37904;BME280;23738;50.422;18.758;2022-07-29T00:44:29;98779.00;;;16.56;57.42
37904;BME280;23738;50.422;18.758;2022-07-29T00:46:55;98770.18;;;16.56;57.48
37904;BME280;23738;50.422;18.758;2022-07-29T00:49:21;98779.88;;;16.59;57.83
37904;BME280;23738;50.422;18.758;2022-07-29T00:51:48;98775.13;;;16.61;57.86
37904;BME280;23738;50.422;18.758;2022-07-29T00:54:14;98782.97;;;16.65;57.67
37904;BME280;23738;50.422;18.758;2022-07-29T00:56:40;98772.59;;;16.66;57.58
37904;BME280;23738;50.422;18.758;2022-07-29T00:59:05;98773.64;;;16.65;57.57
37904;BME280;23738;50.422;18.758;2022-07-29T01:01:31;98776.02;;;16.64;57.62
37904;BME280;23738;50.422;18.758;2022-07-29T01:03:57;98768.23;;;16.63;57.60
37904;BME280;23738;50.422;18.758;2022-07-29T01:06:23;98766.80;;;16.60;57.57
37904;BME280;23738;50.422;18.758;2022-07-29T01:08:50;98770.80;;;16.60;57.65
37904;BME280;23738;50.422;18.758;2022-07-29T01:11:17;98766.48;;;16.57;57.68
37904;BME280;23738;50.422;18.758;2022-07-29T01:13:44;98763.74;;;16.54;57.72
37904;BME280;23738;50.422;18.758;2022-07-29T01:16:20;98761.30;;;16.53;57.71
37904;BME280;23738;50.422;18.758;2022-07-29T01:18:47;98753.78;;;16.50;57.71
37904;BME280;23738;50.422;18.758;2022-07-29T01:21:37;98756.16;;;16.49;57.69
37904;BME280;23738;50.422;18.758;2022-07-29T01:27:05;98760.05;;;16.43;57.60
37904;BME280;23738;50.422;18.758;2022-07-29T01:29:53;98761.61;;;16.42;57.63
37904;BME280;23738;50.422;18.758;2022-07-29T01:32:24;98755.17;;;16.40;57.64
37904;BME280;23738;50.422;18.758;2022-07-29T01:35:03;98757.02;;;16.40;57.64
37904;BME280;23738;50.422;18.758;2022-07-29T01:37:44;98754.80;;;16.37;57.68
37904;BME280;23738;50.422;18.758;2022-07-29T01:43:06;98757.20;;;16.36;57.65
37904;BME280;23738;50.422;18.758;2022-07-29T01:45:47;98754.55;;;16.36;57.54
37904;BME280;23738;50.422;18.758;2022-07-29T01:48:24;98745.95;;;16.34;57.53
37904;BME280;23738;50.422;18.758;2022-07-29T01:51:16;98744.63;;;16.34;57.52
37904;BME280;23738;50.422;18.758;2022-07-29T01:56:38;98738.41;;;16.31;57.54
37904;BME280;23738;50.422;18.758;2022-07-29T01:59:06;98742.11;;;16.30;57.55
37904;BME280;23738;50.422;18.758;2022-07-29T02:01:33;98740.78;;;16.30;57.55
37904;BME280;23738;50.422;18.758;2022-07-29T02:04:02;98736.22;;;16.28;57.63
37904;BME280;23738;50.422;18.758;2022-07-29T02:06:31;98738.08;;;16.27;57.69
37904;BME280;23738;50.422;18.758;2022-07-29T02:08:58;98733.78;;;16.26;57.66
37904;BME280;23738;50.422;18.758;2022-07-29T02:11:25;98740.45;;;16.26;57.70
37904;BME280;23738;50.422;18.758;2022-07-29T02:13:54;98735.63;;;16.26;57.67
37904;BME280;23738;50.422;18.758;2022-07-29T02:16:21;98736.16;;;16.25;57.67
37904;BME280;23738;50.422;18.758;2022-07-29T02:18:52;98742.00;;;16.25;57.62
37904;BME280;23738;50.422;18.758;2022-07-29T02:21:21;98739.86;;;16.24;57.60
37904;BME280;23738;50.422;18.758;2022-07-29T02:23:49;98739.34;;;16.25;57.61
37904;BME280;23738;50.422;18.758;2022-07-29T02:26:20;98746.52;;;16.24;57.70
37904;BME280;23738;50.422;18.758;2022-07-29T02:28:50;98739.56;;;16.23;57.69
37904;BME280;23738;50.422;18.758;2022-07-29T02:31:20;98729.94;;;16.22;57.72
37904;BME280;23738;50.422;18.758;2022-07-29T02:33:49;98728.09;;;16.23;57.73
37904;BME280;23738;50.422;18.758;2022-07-29T02:36:15;98731.27;;;16.22;57.88
37904;BME280;23738;50.422;18.758;2022-07-29T02:38:42;98729.20;;;16.24;58.03
37904;BME280;23738;50.422;18.758;2022-07-29T02:41:29;98730.12;;;16.30;58.00
37904;BME280;23738;50.422;18.758;2022-07-29T02:44:07;98731.00;;;16.33;57.88
37904;BME280;23738;50.422;18.758;2022-07-29T02:46:34;98719.07;;;16.35;57.76
37904;BME280;23738;50.422;18.758;2022-07-29T02:51:48;98729.77;;;16.38;57.62
37904;BME280;23738;50.422;18.758;2022-07-29T02:55:07;98718.59;;;16.38;57.56
37904;BME280;23738;50.422;18.758;2022-07-29T02:56:53;98706.30;;;16.37;57.59
37904;BME280;23738;50.422;18.758;2022-07-29T02:59:23;98714.00;;;16.36;57.52
37904;BME280;23738;50.422;18.758;2022-07-29T03:01:52;98712.11;;;16.34;57.46
37904;BME280;23738;50.422;18.758;2022-07-29T03:04:20;98710.48;;;16.33;57.41
37904;BME280;23738;50.422;18.758;2022-07-29T03:06:49;98706.64;;;16.29;57.35
37904;BME280;23738;50.422;18.758;2022-07-29T03:09:16;98712.23;;;16.28;57.42
37904;BME280;23738;50.422;18.758;2022-07-29T03:11:43;98708.98;;;16.26;57.43
37904;BME280;23738;50.422;18.758;2022-07-29T03:14:10;98701.40;;;16.20;57.42
37904;BME280;23738;50.422;18.758;2022-07-29T03:16:36;98701.73;;;16.24;57.40
37904;BME280;23738;50.422;18.758;2022-07-29T03:19:03;98705.66;;;16.21;57.37
37904;BME280;23738;50.422;18.758;2022-07-29T03:21:30;98706.44;;;16.19;57.39
37904;BME280;23738;50.422;18.758;2022-07-29T03:23:56;98701.33;;;16.18;57.39
37904;BME280;23738;50.422;18.758;2022-07-29T03:26:22;98702.95;;;16.19;57.46
37904;BME280;23738;50.422;18.758;2022-07-29T03:28:48;98705.39;;;16.20;57.43
37904;BME280;23738;50.422;18.758;2022-07-29T03:31:13;98706.47;;;16.22;57.47
37904;BME280;23738;50.422;18.758;2022-07-29T03:33:39;98705.44;;;16.23;57.46
37904;BME280;23738;50.422;18.758;2022-07-29T03:36:05;98704.69;;;16.25;57.44
37904;BME280;23738;50.422;18.758;2022-07-29T03:41:30;98707.30;;;16.34;57.29
37904;BME280;23738;50.422;18.758;2022-07-29T03:43:58;98704.05;;;16.32;57.52
37904;BME280;23738;50.422;18.758;2022-07-29T03:46:26;98703.82;;;16.33;57.54
37904;BME280;23738;50.422;18.758;2022-07-29T03:48:57;98710.55;;;16.36;57.48
37904;BME280;23738;50.422;18.758;2022-07-29T03:51:25;98715.98;;;16.41;57.50
37904;BME280;23738;50.422;18.758;2022-07-29T03:53:51;98715.24;;;16.43;57.50
37904;BME280;23738;50.422;18.758;2022-07-29T03:56:20;98712.61;;;16.45;57.46
37904;BME280;23738;50.422;18.758;2022-07-29T03:58:49;98711.58;;;16.46;57.48
37904;BME280;23738;50.422;18.758;2022-07-29T04:01:17;98713.72;;;16.47;57.41
37904;BME280;23738;50.422;18.758;2022-07-29T04:03:44;98716.97;;;16.49;57.39
37904;BME280;23738;50.422;18.758;2022-07-29T04:06:14;98712.75;;;16.51;57.43
37904;BME280;23738;50.422;18.758;2022-07-29T04:08:40;98718.92;;;16.54;57.47
37904;BME280;23738;50.422;18.758;2022-07-29T04:11:06;98722.70;;;16.55;57.46
37904;BME280;23738;50.422;18.758;2022-07-29T04:13:32;98728.91;;;16.58;57.44
37904;BME280;23738;50.422;18.758;2022-07-29T04:15:58;98735.13;;;16.61;57.54
37904;BME280;23738;50.422;18.758;2022-07-29T04:18:24;98736.53;;;16.64;57.68
37904;BME280;23738;50.422;18.758;2022-07-29T04:20:51;98729.86;;;16.64;57.69
37904;BME280;23738;50.422;18.758;2022-07-29T04:23:16;98728.88;;;16.67;57.70
37904;BME280;23738;50.422;18.758;2022-07-29T04:25:43;98731.26;;;16.66;57.72
37904;BME280;23738;50.422;18.758;2022-07-29T04:28:09;98725.41;;;16.67;57.65
37904;BME280;23738;50.422;18.758;2022-07-29T04:30:36;98716.59;;;16.66;57.66
37904;BME280;23738;50.422;18.758;2022-07-29T04:33:05;98721.73;;;16.70;57.76
37904;BME280;23738;50.422;18.758;2022-07-29T04:35:36;98699.28;;;16.69;57.86
37904;BME280;23738;50.422;18.758;2022-07-29T04:38:04;98710.92;;;16.89;58.00
37904;BME280;23738;50.422;18.758;2022-07-29T04:40:30;98710.03;;;16.97;58.25
37904;BME280;23738;50.422;18.758;2022-07-29T04:42:59;98693.13;;;17.06;58.11
37904;BME280;23738;50.422;18.758;2022-07-29T04:45:26;98683.44;;;17.16;57.92
37904;BME280;23738;50.422;18.758;2022-07-29T04:47:52;98684.39;;;17.25;57.79
37904;BME280;23738;50.422;18.758;2022-07-29T04:50:18;98685.03;;;17.29;57.70
37904;BME280;23738;50.422;18.758;2022-07-29T04:52:44;98690.16;;;17.33;57.56
37904;BME280;23738;50.422;18.758;2022-07-29T04:55:10;98685.41;;;17.35;57.54
37904;BME280;23738;50.422;18.758;2022-07-29T04:57:36;98679.89;;;17.39;57.57
37904;BME280;23738;50.422;18.758;2022-07-29T05:00:04;98684.44;;;17.41;57.64
37904;BME280;23738;50.422;18.758;2022-07-29T05:02:31;98686.64;;;17.44;57.66
37904;BME280;23738;50.422;18.758;2022-07-29T05:04:57;98680.25;;;17.45;57.37
37904;BME280;23738;50.422;18.758;2022-07-29T05:07:23;98687.22;;;17.46;57.63
37904;BME280;23738;50.422;18.758;2022-07-29T05:09:49;98686.72;;;17.49;57.65
37904;BME280;23738;50.422;18.758;2022-07-29T05:12:14;98685.39;;;17.49;57.69
37904;BME280;23738;50.422;18.758;2022-07-29T05:14:40;98685.68;;;17.50;57.66
37904;BME280;23738;50.422;18.758;2022-07-29T05:17:06;98689.22;;;17.53;57.61
37904;BME280;23738;50.422;18.758;2022-07-29T05:19:32;98692.41;;;17.53;57.59
37904;BME280;23738;50.422;18.758;2022-07-29T05:21:58;98689.73;;;17.53;57.65
37904;BME280;23738;50.422;18.758;2022-07-29T05:24:25;98688.92;;;17.52;57.65
37904;BME280;23738;50.422;18.758;2022-07-29T05:26:51;98680.63;;;17.51;57.65
37904;BME280;23738;50.422;18.758;2022-07-29T05:29:17;98681.09;;;17.48;57.73
37904;BME280;23738;50.422;18.758;2022-07-29T05:31:42;98682.17;;;17.47;57.75
37904;BME280;23738;50.422;18.758;2022-07-29T05:34:08;98679.21;;;17.46;57.69
37904;BME280;23738;50.422;18.758;2022-07-29T05:36:34;98672.25;;;17.45;57.79
37904;BME280;23738;50.422;18.758;2022-07-29T05:39:00;98674.10;;;17.45;57.88
37904;BME280;23738;50.422;18.758;2022-07-29T05:41:25;98671.95;;;17.44;57.90
37904;BME280;23738;50.422;18.758;2022-07-29T05:43:51;98674.70;;;17.49;58.01
37904;BME280;23738;50.422;18.758;2022-07-29T05:46:17;98675.47;;;17.76;58.01
37904;BME280;23738;50.422;18.758;2022-07-29T05:48:42;98675.47;;;18.09;57.88
37904;BME280;23738;50.422;18.758;2022-07-29T05:51:08;98674.63;;;18.42;57.72
37904;BME280;23738;50.422;18.758;2022-07-29T05:53:35;98682.33;;;18.77;57.63
37904;BME280;23738;50.422;18.758;2022-07-29T05:56:03;98688.41;;;19.14;57.43
37904;BME280;23738;50.422;18.758;2022-07-29T05:58:30;98692.28;;;19.47;57.15
37904;BME280;23738;50.422;18.758;2022-07-29T06:00:55;98696.89;;;19.83;56.81
37904;BME280;23738;50.422;18.758;2022-07-29T06:03:23;98702.02;;;20.22;56.55
37904;BME280;23738;50.422;18.758;2022-07-29T06:05:49;98700.95;;;20.57;56.25
37904;BME280;23738;50.422;18.758;2022-07-29T06:08:15;98699.12;;;20.66;55.65
37904;BME280;23738;50.422;18.758;2022-07-29T06:10:40;98702.31;;;20.62;55.66
37904;BME280;23738;50.422;18.758;2022-07-29T06:13:06;98705.78;;;20.60;55.63
37904;BME280;23738;50.422;18.758;2022-07-29T06:15:33;98700.76;;;20.72;55.73
37904;BME280;23738;50.422;18.758;2022-07-29T06:17:59;98700.02;;;20.86;55.56
37904;BME280;23738;50.422;18.758;2022-07-29T06:20:25;98694.45;;;21.03;55.38
37904;BME280;23738;50.422;18.758;2022-07-29T06:22:52;98692.42;;;21.33;55.06
37904;BME280;23738;50.422;18.758;2022-07-29T06:25:18;98688.97;;;21.55;54.60
37904;BME280;23738;50.422;18.758;2022-07-29T06:27:44;98685.51;;;21.62;54.55
37904;BME280;23738;50.422;18.758;2022-07-29T06:30:10;98682.26;;;21.58;54.36
37904;BME280;23738;50.422;18.758;2022-07-29T06:32:37;98680.92;;;21.53;54.34
37904;BME280;23738;50.422;18.758;2022-07-29T06:35:03;98677.17;;;21.69;54.55
37904;BME280;23738;50.422;18.758;2022-07-29T06:37:30;98681.20;;;21.89;54.31
37904;BME280;23738;50.422;18.758;2022-07-29T06:39:56;98679.88;;;22.14;54.11
37904;BME280;23738;50.422;18.758;2022-07-29T06:42:44;98669.63;;;22.39;53.78
37904;BME280;23738;50.422;18.758;2022-07-29T06:45:11;98675.45;;;22.69;53.66
37904;BME280;23738;50.422;18.758;2022-07-29T06:47:37;98673.78;;;22.94;53.31
37904;BME280;23738;50.422;18.758;2022-07-29T06:50:04;98680.41;;;23.19;53.13
37904;BME280;23738;50.422;18.758;2022-07-29T06:52:31;98686.47;;;23.42;52.92
37904;BME280;23738;50.422;18.758;2022-07-29T06:54:56;98683.42;;;23.61;51.86
37904;BME280;23738;50.422;18.758;2022-07-29T06:57:22;98681.11;;;23.79;51.96
37904;BME280;23738;50.422;18.758;2022-07-29T06:59:48;98683.59;;;24.07;51.63
37904;BME280;23738;50.422;18.758;2022-07-29T07:02:14;98687.90;;;24.10;51.31
37904;BME280;23738;50.422;18.758;2022-07-29T07:04:39;98688.38;;;24.17;50.49
37904;BME280;23738;50.422;18.758;2022-07-29T07:07:05;98679.50;;;24.12;50.83
37904;BME280;23738;50.422;18.758;2022-07-29T07:09:31;98683.89;;;24.02;50.89
37904;BME280;23738;50.422;18.758;2022-07-29T07:11:57;98684.27;;;23.91;50.72
37904;BME280;23738;50.422;18.758;2022-07-29T07:14:23;98665.84;;;23.69;49.95
37904;BME280;23738;50.422;18.758;2022-07-29T07:16:51;98682.94;;;23.52;50.52
37904;BME280;23738;50.422;18.758;2022-07-29T07:19:17;98686.47;;;23.42;50.62
37904;BME280;23738;50.422;18.758;2022-07-29T07:21:44;98685.70;;;23.37;50.54
37904;BME280;23738;50.422;18.758;2022-07-29T07:24:10;98696.22;;;23.36;50.61
37904;BME280;23738;50.422;18.758;2022-07-29T07:26:35;98689.20;;;23.37;50.61
37904;BME280;23738;50.422;18.758;2022-07-29T07:29:01;98698.64;;;23.37;50.25
37904;BME280;23738;50.422;18.758;2022-07-29T07:31:27;98700.22;;;23.43;50.20
37904;BME280;23738;50.422;18.758;2022-07-29T07:33:53;98695.06;;;23.54;50.24
37904;BME280;23738;50.422;18.758;2022-07-29T07:36:19;98690.94;;;23.64;50.27
37904;BME280;23738;50.422;18.758;2022-07-29T07:38:45;98688.77;;;23.67;50.17
37904;BME280;23738;50.422;18.758;2022-07-29T07:41:11;98685.58;;;23.62;49.97
37904;BME280;23738;50.422;18.758;2022-07-29T07:43:37;98689.63;;;23.59;50.21
37904;BME280;23738;50.422;18.758;2022-07-29T07:46:04;98687.14;;;23.68;50.60
37904;BME280;23738;50.422;18.758;2022-07-29T07:48:30;98679.86;;;23.69;50.26
37904;BME280;23738;50.422;18.758;2022-07-29T07:50:55;98683.06;;;23.71;50.29
37904;BME280;23738;50.422;18.758;2022-07-29T07:53:21;98698.42;;;23.73;50.30
37904;BME280;23738;50.422;18.758;2022-07-29T07:55:47;98691.96;;;23.71;50.16
37904;BME280;23738;50.422;18.758;2022-07-29T07:58:13;98696.01;;;23.71;50.09
37904;BME280;23738;50.422;18.758;2022-07-29T08:00:39;98690.00;;;23.84;50.43
37904;BME280;23738;50.422;18.758;2022-07-29T08:03:05;98689.86;;;24.02;49.97
37904;BME280;23738;50.422;18.758;2022-07-29T08:05:30;98698.64;;;24.15;49.81
37904;BME280;23738;50.422;18.758;2022-07-29T08:07:57;98694.27;;;24.24;49.42
37904;BME280;23738;50.422;18.758;2022-07-29T08:10:24;98692.58;;;24.31;49.55
37904;BME280;23738;50.422;18.758;2022-07-29T08:13:09;98688.13;;;24.43;49.62
37904;BME280;23738;50.422;18.758;2022-07-29T08:15:38;98692.91;;;24.77;49.05
37904;BME280;23738;50.422;18.758;2022-07-29T08:18:04;98688.17;;;24.90;48.83
37904;BME280;23738;50.422;18.758;2022-07-29T08:20:30;98691.59;;;24.98;48.94
37904;BME280;23738;50.422;18.758;2022-07-29T08:22:58;98687.55;;;25.20;48.58
37904;BME280;23738;50.422;18.758;2022-07-29T08:25:24;98691.61;;;25.57;48.34
37904;BME280;23738;50.422;18.758;2022-07-29T08:27:50;98683.70;;;25.98;48.27
37904;BME280;23738;50.422;18.758;2022-07-29T08:30:16;98690.78;;;26.29;47.87
37904;BME280;23738;50.422;18.758;2022-07-29T08:32:42;98698.30;;;26.48;47.36
37904;BME280;23738;50.422;18.758;2022-07-29T08:35:08;98685.81;;;26.50;47.45
37904;BME280;23738;50.422;18.758;2022-07-29T08:37:34;98688.05;;;26.45;47.35
37904;BME280;23738;50.422;18.758;2022-07-29T08:40:00;98699.66;;;26.48;47.41
37904;BME280;23738;50.422;18.758;2022-07-29T08:42:26;98705.73;;;26.56;47.15
37904;BME280;23738;50.422;18.758;2022-07-29T08:44:52;98698.85;;;26.61;46.50
37904;BME280;23738;50.422;18.758;2022-07-29T08:47:18;98700.17;;;26.64;46.72
37904;BME280;23738;50.422;18.758;2022-07-29T08:49:44;98695.36;;;26.88;46.38
37904;BME280;23738;50.422;18.758;2022-07-29T08:52:12;98690.62;;;26.96;46.25
37904;BME280;23738;50.422;18.758;2022-07-29T08:54:43;98686.41;;;27.15;46.21
37904;BME280;23738;50.422;18.758;2022-07-29T08:57:12;98687.00;;;27.51;45.69
37904;BME280;23738;50.422;18.758;2022-07-29T08:59:42;98688.22;;;27.80;45.44
37904;BME280;23738;50.422;18.758;2022-07-29T09:02:11;98684.69;;;28.02;45.08
37904;BME280;23738;50.422;18.758;2022-07-29T09:04:39;98680.00;;;28.28;45.37
37904;BME280;23738;50.422;18.758;2022-07-29T09:07:06;98679.48;;;28.48;45.10
37904;BME280;23738;50.422;18.758;2022-07-29T09:09:33;98674.22;;;28.71;45.15
37904;BME280;23738;50.422;18.758;2022-07-29T09:11:59;98675.05;;;29.00;44.13
37904;BME280;23738;50.422;18.758;2022-07-29T09:14:25;98683.78;;;29.08;43.45
37904;BME280;23738;50.422;18.758;2022-07-29T09:16:54;98679.27;;;29.32;43.52
37904;BME280;23738;50.422;18.758;2022-07-29T09:19:23;98681.47;;;29.41;42.91
37904;BME280;23738;50.422;18.758;2022-07-29T09:21:58;98679.16;;;29.37;42.65
37904;BME280;23738;50.422;18.758;2022-07-29T09:24:40;98681.03;;;29.28;42.84
37904;BME280;23738;50.422;18.758;2022-07-29T09:27:23;98684.75;;;29.04;42.57
37904;BME280;23738;50.422;18.758;2022-07-29T09:29:59;98677.38;;;28.76;42.60
37904;BME280;23738;50.422;18.758;2022-07-29T09:32:28;98671.58;;;28.49;42.71
37904;BME280;23738;50.422;18.758;2022-07-29T09:35:13;98677.28;;;28.39;42.83
37904;BME280;23738;50.422;18.758;2022-07-29T09:37:44;98680.75;;;28.31;43.58
37904;BME280;23738;50.422;18.758;2022-07-29T09:40:14;98668.89;;;28.27;43.20
37904;BME280;23738;50.422;18.758;2022-07-29T09:42:45;98672.35;;;28.30;43.23
37904;BME280;23738;50.422;18.758;2022-07-29T09:45:12;98665.55;;;28.41;43.26
37904;BME280;23738;50.422;18.758;2022-07-29T09:47:45;98667.36;;;28.54;43.08
37904;BME280;23738;50.422;18.758;2022-07-29T09:50:15;98652.78;;;28.50;43.08
37904;BME280;23738;50.422;18.758;2022-07-29T09:52:49;98652.78;;;28.50;43.08
37904;BME280;23738;50.422;18.758;2022-07-29T09:55:16;98661.61;;;28.55;43.25
37904;BME280;23738;50.422;18.758;2022-07-29T09:57:43;98659.48;;;28.64;43.34
37904;BME280;23738;50.422;18.758;2022-07-29T10:00:17;98656.98;;;28.76;42.54
37904;BME280;23738;50.422;18.758;2022-07-29T10:02:45;98652.69;;;28.83;42.40
37904;BME280;23738;50.422;18.758;2022-07-29T10:05:25;98648.57;;;28.95;42.04
37904;BME280;23738;50.422;18.758;2022-07-29T10:07:55;98648.16;;;28.99;42.17
37904;BME280;23738;50.422;18.758;2022-07-29T10:10:33;98639.55;;;28.97;42.05
37904;BME280;23738;50.422;18.758;2022-07-29T10:13:09;98641.75;;;28.86;42.28
37904;BME280;23738;50.422;18.758;2022-07-29T10:15:39;98647.50;;;28.84;42.56
37904;BME280;23738;50.422;18.758;2022-07-29T10:18:12;98644.72;;;28.87;42.03
37904;BME280;23738;50.422;18.758;2022-07-29T10:20:39;98641.81;;;28.83;41.91
37904;BME280;23738;50.422;18.758;2022-07-29T10:23:05;98640.89;;;28.88;42.21
37904;BME280;23738;50.422;18.758;2022-07-29T10:25:32;98646.91;;;28.96;42.32
37904;BME280;23738;50.422;18.758;2022-07-29T10:27:58;98643.41;;;29.13;41.66
37904;BME280;23738;50.422;18.758;2022-07-29T10:30:26;98635.97;;;29.24;41.63
37904;BME280;23738;50.422;18.758;2022-07-29T10:36:20;98633.44;;;29.62;41.44
37904;BME280;23738;50.422;18.758;2022-07-29T10:39:00;98630.39;;;29.73;41.45
37904;BME280;23738;50.422;18.758;2022-07-29T10:41:56;98639.13;;;29.63;41.27
37904;BME280;23738;50.422;18.758;2022-07-29T10:44:23;98631.13;;;29.41;41.08
37904;BME280;23738;50.422;18.758;2022-07-29T10:46:51;98643.74;;;29.20;41.02
37904;BME280;23738;50.422;18.758;2022-07-29T10:49:26;98633.54;;;29.06;40.94
37904;BME280;23738;50.422;18.758;2022-07-29T10:54:41;98641.70;;;29.06;41.15
37904;BME280;23738;50.422;18.758;2022-07-29T11:05:06;98641.46;;;29.50;40.78
37904;BME280;23738;50.422;18.758;2022-07-29T11:07:37;98639.60;;;29.74;41.19
37904;BME280;23738;50.422;18.758;2022-07-29T11:12:46;98632.84;;;29.89;41.00
37904;BME280;23738;50.422;18.758;2022-07-29T11:15:14;98629.95;;;29.85;40.26
37904;BME280;23738;50.422;18.758;2022-07-29T11:20:43;98639.92;;;29.64;40.43
37904;BME280;23738;50.422;18.758;2022-07-29T11:23:28;98637.06;;;29.60;40.40
37904;BME280;23738;50.422;18.758;2022-07-29T11:26:14;98637.86;;;29.52;40.62
37904;BME280;23738;50.422;18.758;2022-07-29T11:28:51;98633.30;;;29.50;40.59
37904;BME280;23738;50.422;18.758;2022-07-29T11:31:32;98640.09;;;29.42;40.49
37904;BME280;23738;50.422;18.758;2022-07-29T11:47:47;98644.69;;;28.78;42.37
37904;BME280;23738;50.422;18.758;2022-07-29T11:50:34;98652.17;;;28.73;42.43
37904;BME280;23738;50.422;18.758;2022-07-29T11:53:09;98645.96;;;28.61;42.58
37904;BME280;23738;50.422;18.758;2022-07-29T11:55:38;98652.33;;;28.37;42.11
37904;BME280;23738;50.422;18.758;2022-07-29T11:58:05;98649.28;;;28.18;42.44
37904;BME280;23738;50.422;18.758;2022-07-29T12:00:40;98659.89;;;28.06;43.07
37904;BME280;23738;50.422;18.758;2022-07-29T12:03:07;98665.08;;;27.94;43.46
37904;BME280;23738;50.422;18.758;2022-07-29T12:05:40;98656.50;;;27.78;43.54
37904;BME280;23738;50.422;18.758;2022-07-29T12:08:10;98661.75;;;27.64;44.03
37904;BME280;23738;50.422;18.758;2022-07-29T12:10:39;98659.91;;;27.48;44.37
37904;BME280;23738;50.422;18.758;2022-07-29T12:13:06;98661.33;;;27.34;44.59
37904;BME280;23738;50.422;18.758;2022-07-29T12:15:33;98658.70;;;27.18;45.10
37904;BME280;23738;50.422;18.758;2022-07-29T12:18:14;98660.98;;;27.00;45.39
37904;BME280;23738;50.422;18.758;2022-07-29T12:20:44;98659.62;;;26.86;45.67
37904;BME280;23738;50.422;18.758;2022-07-29T12:23:11;98657.22;;;26.71;46.23
37904;BME280;23738;50.422;18.758;2022-07-29T12:25:41;98661.52;;;26.58;46.64
37904;BME280;23738;50.422;18.758;2022-07-29T12:28:14;98662.58;;;26.46;46.80
37904;BME280;23738;50.422;18.758;2022-07-29T12:30:46;98665.98;;;26.38;46.73
37904;BME280;23738;50.422;18.758;2022-07-29T12:33:26;98666.16;;;26.28;46.99
37904;BME280;23738;50.422;18.758;2022-07-29T12:35:53;98660.69;;;26.14;47.05
37904;BME280;23738;50.422;18.758;2022-07-29T12:38:20;98654.70;;;26.01;47.49
37904;BME280;23738;50.422;18.758;2022-07-29T12:40:48;98636.47;;;25.90;48.08
37904;BME280;23738;50.422;18.758;2022-07-29T12:43:17;98628.23;;;25.82;48.34
37904;BME280;23738;50.422;18.758;2022-07-29T12:45:47;98633.86;;;25.69;48.83
37904;BME280;23738;50.422;18.758;2022-07-29T12:48:17;98635.63;;;25.58;49.40
37904;BME280;23738;50.422;18.758;2022-07-29T12:50:55;98636.84;;;25.49;49.78
37904;BME280;23738;50.422;18.758;2022-07-29T12:53:24;98644.63;;;25.34;50.12
37904;BME280;23738;50.422;18.758;2022-07-29T12:55:51;98630.35;;;25.12;50.52
37904;BME280;23738;50.422;18.758;2022-07-29T12:58:41;98625.16;;;24.97;51.58
37904;BME280;23738;50.422;18.758;2022-07-29T13:01:10;98612.83;;;24.86;51.68
37904;BME280;23738;50.422;18.758;2022-07-29T13:03:55;98604.00;;;24.81;51.72
37904;BME280;23738;50.422;18.758;2022-07-29T13:06:41;98594.02;;;24.78;51.94
37904;BME280;23738;50.422;18.758;2022-07-29T13:09:14;98588.64;;;24.76;52.04
37904;BME280;23738;50.422;18.758;2022-07-29T13:11:47;98579.45;;;24.77;52.42
37904;BME280;23738;50.422;18.758;2022-07-29T13:14:38;98577.48;;;24.83;52.67
37904;BME280;23738;50.422;18.758;2022-07-29T13:19:47;98560.22;;;25.02;52.69
37904;BME280;23738;50.422;18.758;2022-07-29T13:22:16;98557.64;;;25.13;52.49
37904;BME280;23738;50.422;18.758;2022-07-29T13:24:56;98560.39;;;25.27;52.71
37904;BME280;23738;50.422;18.758;2022-07-29T13:27:28;98552.42;;;25.36;52.51
37904;BME280;23738;50.422;18.758;2022-07-29T13:29:59;98553.70;;;25.38;52.25
37904;BME280;23738;50.422;18.758;2022-07-29T13:32:26;98549.11;;;25.39;52.02
37904;BME280;23738;50.422;18.758;2022-07-29T13:34:55;98545.31;;;25.40;52.03
37904;BME280;23738;50.422;18.758;2022-07-29T13:37:21;98543.13;;;25.42;52.20
37904;BME280;23738;50.422;18.758;2022-07-29T13:39:47;98531.66;;;25.47;52.14
37904;BME280;23738;50.422;18.758;2022-07-29T13:42:13;98535.00;;;25.58;51.93
37904;BME280;23738;50.422;18.758;2022-07-29T13:44:39;98541.08;;;25.69;51.46
37904;BME280;23738;50.422;18.758;2022-07-29T13:47:06;98534.11;;;25.79;51.83
37904;BME280;23738;50.422;18.758;2022-07-29T13:49:33;98535.51;;;25.93;51.92